sensor_id;sensor_type;location;lat;lon;timestamp;pressure;altitude;pressure_sealevel;temperature;humidity
25650;BME280;13505;45.196;5.696;2023-02-15T05:00:46;100589.03;;;4.24;68.50
25650;BME280;13505;45.196;5.696;2023-02-15T05:05:36;100582.06;;;4.15;69.14
25650;BME280;13505;45.196;5.696;2023-02-15T05:10:27;100576.84;;;4.19;69.26
25650;BME280;13505;45.196;5.696;2023-02-15T05:15:17;100579.47;;;4.27;68.88
25650;BME280;13505;45.196;5.696;2023-02-15T05:20:08;100574.22;;;4.26;69.34
25650;BME280;13505;45.196;5.696;2023-02-15T05:24:58;100576.84;;;4.18;70.71
25650;BME280;13505;45.196;5.696;2023-02-15T05:30:08;100570.75;;;4.21;71.75
25650;BME280;13505;45.196;5.696;2023-02-15T05:35:01;100564.63;;;4.18;71.47
25650;BME280;13505;45.196;5.696;2023-02-15T05:39:51;100567.25;;;4.18;69.92
25650;BME280;13505;45.196;5.696;2023-02-15T05:44:42;100570.69;;;4.02;69.24
25650;BME280;13505;45.196;5.696;2023-02-15T05:49:32;100581.03;;;3.75;70.05
25650;BME280;13505;45.196;5.696;2023-02-15T05:54:23;100584.47;;;3.70;70.47
25650;BME280;13505;45.196;5.696;2023-02-15T05:59:13;100584.44;;;3.60;71.76
25650;BME280;13505;45.196;5.696;2023-02-15T06:04:04;100592.97;;;3.33;73.93
25650;BME280;13505;45.196;5.696;2023-02-15T06:08:54;100592.16;;;3.46;74.71
25650;BME280;13505;45.196;5.696;2023-02-15T06:13:44;100590.47;;;3.50;74.68
25650;BME280;13505;45.196;5.696;2023-02-15T06:18:35;100605.38;;;3.74;72.96
25650;BME280;13505;45.196;5.696;2023-02-15T06:23:25;100603.66;;;3.80;72.84
25650;BME280;13505;45.196;5.696;2023-02-15T06:28:15;100615.81;;;3.74;73.38
25650;BME280;13505;45.196;5.696;2023-02-15T06:33:06;100619.28;;;3.75;73.98
25650;BME280;13505;45.196;5.696;2023-02-15T06:37:56;100621.09;;;3.90;73.62
25650;BME280;13505;45.196;5.696;2023-02-15T06:42:46;100628.00;;;3.72;74.15
25650;BME280;13505;45.196;5.696;2023-02-15T06:47:37;100616.66;;;3.67;75.27
25650;BME280;13505;45.196;5.696;2023-02-15T06:52:27;100623.75;;;3.93;74.02
25650;BME280;13505;45.196;5.696;2023-02-15T06:57:19;100621.31;;;4.43;75.11
25650;BME280;13505;45.196;5.696;2023-02-15T07:02:13;100629.94;;;4.17;72.87
25650;BME280;13505;45.196;5.696;2023-02-15T07:07:08;100629.88;;;4.06;72.25
25650;BME280;13505;45.196;5.696;2023-02-15T07:11:59;100632.50;;;4.00;72.63
25650;BME280;13505;45.196;5.696;2023-02-15T07:17:08;100636.84;;;4.04;72.84
25650;BME280;13505;45.196;5.696;2023-02-15T07:21:58;100628.09;;;3.96;73.16
25650;BME280;13505;45.196;5.696;2023-02-15T07:26:48;100639.56;;;4.30;72.04
25650;BME280;13505;45.196;5.696;2023-02-15T07:31:39;100636.13;;;4.53;71.29
25650;BME280;13505;45.196;5.696;2023-02-15T07:36:29;100640.44;;;4.26;72.38
25650;BME280;13505;45.196;5.696;2023-02-15T07:41:20;100626.47;;;4.29;71.92
25650;BME280;13505;45.196;5.696;2023-02-15T07:46:13;100627.34;;;4.22;72.19
25650;BME280;13505;45.196;5.696;2023-02-15T07:51:07;100624.00;;;4.80;70.48
25650;BME280;13505;45.196;5.696;2023-02-15T07:56:12;100617.03;;;5.01;68.90
25650;BME280;13505;45.196;5.696;2023-02-15T08:01:03;100622.22;;;5.15;68.11
25650;BME280;13505;45.196;5.696;2023-02-15T08:05:56;100620.47;;;5.56;66.42
25650;BME280;13505;45.196;5.696;2023-02-15T08:10:48;100618.72;;;5.59;66.67
25650;BME280;13505;45.196;5.696;2023-02-15T08:15:57;100611.75;;;5.54;65.86
25650;BME280;13505;45.196;5.696;2023-02-15T08:20:50;100602.84;;;6.00;64.97
25650;BME280;13505;45.196;5.696;2023-02-15T08:25:40;100608.13;;;6.03;64.62
25650;BME280;13505;45.196;5.696;2023-02-15T08:30:31;100599.34;;;6.13;63.81
25650;BME280;13505;45.196;5.696;2023-02-15T08:35:21;100595.72;;;6.38;62.55
25650;BME280;13505;45.196;5.696;2023-02-15T08:40:11;100586.84;;;6.57;62.25
25650;BME280;13505;45.196;5.696;2023-02-15T08:45:03;100587.59;;;6.77;62.46
25650;BME280;13505;45.196;5.696;2023-02-15T08:49:54;100594.44;;;6.93;59.38
25650;BME280;13505;45.196;5.696;2023-02-15T08:54:45;100586.34;;;7.20;59.86
25650;BME280;13505;45.196;5.696;2023-02-15T08:59:36;100582.72;;;7.36;58.81
25650;BME280;13505;45.196;5.696;2023-02-15T09:04:26;100570.72;;;7.90;58.24
25650;BME280;13505;45.196;5.696;2023-02-15T09:09:18;100564.28;;;7.41;58.25
25650;BME280;13505;45.196;5.696;2023-02-15T09:14:11;100566.63;;;7.67;56.75
25650;BME280;13505;45.196;5.696;2023-02-15T09:19:04;100573.53;;;8.41;54.39
25650;BME280;13505;45.196;5.696;2023-02-15T09:23:57;100562.31;;;8.28;53.15
25650;BME280;13505;45.196;5.696;2023-02-15T09:28:55;100553.66;;;8.22;52.74
25650;BME280;13505;45.196;5.696;2023-02-15T09:33:47;100552.00;;;8.75;51.92
25650;BME280;13505;45.196;5.696;2023-02-15T09:38:37;100558.50;;;8.52;52.17
25650;BME280;13505;45.196;5.696;2023-02-15T09:43:42;100542.00;;;8.97;51.37
25650;BME280;13505;45.196;5.696;2023-02-15T09:48:41;100533.56;;;9.27;51.30
25650;BME280;13505;45.196;5.696;2023-02-15T10:03:50;100526.88;;;9.56;50.65
25650;BME280;13505;45.196;5.696;2023-02-15T10:14:15;100518.00;;;9.60;49.58
25650;BME280;13505;45.196;5.696;2023-02-15T10:24:38;100522.19;;;10.51;47.45
25650;BME280;13505;45.196;5.696;2023-02-15T10:29:37;100526.88;;;10.75;47.61
25650;BME280;13505;45.196;5.696;2023-02-15T10:50:23;100497.81;;;12.59;45.86
25650;BME280;13505;45.196;5.696;2023-02-15T10:55:39;100484.94;;;13.26;45.01
25650;BME280;13505;45.196;5.696;2023-02-15T11:06:08;100471.78;;;13.48;43.88
25650;BME280;13505;45.196;5.696;2023-02-15T11:11:04;100464.41;;;13.57;43.78
25650;BME280;13505;45.196;5.696;2023-02-15T11:16:22;100457.50;;;13.52;42.03
25650;BME280;13505;45.196;5.696;2023-02-15T11:21:19;100457.25;;;13.82;42.70
25650;BME280;13505;45.196;5.696;2023-02-15T11:26:24;100448.38;;;13.84;43.52
25650;BME280;13505;45.196;5.696;2023-02-15T11:31:21;100442.22;;;14.05;43.91
25650;BME280;13505;45.196;5.696;2023-02-15T11:36:37;100427.84;;;14.11;43.70
25650;BME280;13505;45.196;5.696;2023-02-15T11:41:33;100424.06;;;13.94;44.18
25650;BME280;13505;45.196;5.696;2023-02-15T11:46:24;100410.88;;;13.71;43.85
25650;BME280;13505;45.196;5.696;2023-02-15T11:51:19;100411.56;;;13.76;44.02
25650;BME280;13505;45.196;5.696;2023-02-15T11:56:19;100404.09;;;13.86;43.58
25650;BME280;13505;45.196;5.696;2023-02-15T12:06:28;100383.16;;;14.64;43.98
25650;BME280;13505;45.196;5.696;2023-02-15T12:11:25;100371.66;;;14.63;43.36
25650;BME280;13505;45.196;5.696;2023-02-15T12:16:18;100362.50;;;14.72;43.58
25650;BME280;13505;45.196;5.696;2023-02-15T12:21:12;100355.69;;;14.86;43.13
25650;BME280;13505;45.196;5.696;2023-02-15T12:26:04;100346.72;;;14.88;43.39
25650;BME280;13505;45.196;5.696;2023-02-15T12:30:56;100334.59;;;14.83;44.30
25650;BME280;13505;45.196;5.696;2023-02-15T12:35:47;100328.34;;;14.84;45.18
25650;BME280;13505;45.196;5.696;2023-02-15T12:40:39;100316.84;;;14.83;46.20
25650;BME280;13505;45.196;5.696;2023-02-15T12:45:32;100303.97;;;14.74;46.55
25650;BME280;13505;45.196;5.696;2023-02-15T12:50:23;100293.81;;;14.84;45.70
25650;BME280;13505;45.196;5.696;2023-02-15T12:55:27;100305.06;;;15.08;44.12
25650;BME280;13505;45.196;5.696;2023-02-15T13:05:35;100283.72;;;15.29;43.74
25650;BME280;13505;45.196;5.696;2023-02-15T13:10:33;100289.19;;;15.26;44.03
25650;BME280;13505;45.196;5.696;2023-02-15T13:15:56;100281.47;;;15.58;43.86
25650;BME280;13505;45.196;5.696;2023-02-15T13:20:49;100278.41;;;15.66;43.95
25650;BME280;13505;45.196;5.696;2023-02-15T13:25:44;100269.38;;;15.51;44.29
25650;BME280;13505;45.196;5.696;2023-02-15T13:30:43;100269.00;;;15.41;44.01
25650;BME280;13505;45.196;5.696;2023-02-15T13:35:50;100264.22;;;15.30;44.67
25650;BME280;13505;45.196;5.696;2023-02-15T13:40:48;100261.63;;;15.28;44.35
25650;BME280;13505;45.196;5.696;2023-02-15T13:55:57;100260.47;;;15.34;43.70
25650;BME280;13505;45.196;5.696;2023-02-15T14:01:10;100255.53;;;15.07;44.68
25650;BME280;13505;45.196;5.696;2023-02-15T14:22:01;100273.28;;;14.87;43.21
25650;BME280;13505;45.196;5.696;2023-02-15T14:31:57;100275.84;;;14.89;42.73
25650;BME280;13505;45.196;5.696;2023-02-15T14:36:50;100266.81;;;14.93;43.29
25650;BME280;13505;45.196;5.696;2023-02-15T14:41:49;100272.63;;;15.01;42.40
25650;BME280;13505;45.196;5.696;2023-02-15T14:56:36;100282.56;;;15.54;40.93
25650;BME280;13505;45.196;5.696;2023-02-15T15:01:34;100274.66;;;15.52;41.21
25650;BME280;13505;45.196;5.696;2023-02-15T15:06:29;100281.84;;;15.50;41.34
25650;BME280;13505;45.196;5.696;2023-02-15T15:21:51;100285.13;;;15.55;42.04
25650;BME280;13505;45.196;5.696;2023-02-15T15:26:42;100279.25;;;15.48;42.25
25650;BME280;13505;45.196;5.696;2023-02-15T15:31:41;100281.34;;;15.42;42.52
25650;BME280;13505;45.196;5.696;2023-02-15T15:42:12;100284.88;;;15.23;43.01
25650;BME280;13505;45.196;5.696;2023-02-15T15:47:27;100287.94;;;14.96;43.20
25650;BME280;13505;45.196;5.696;2023-02-15T15:52:24;100294.81;;;15.00;44.03
25650;BME280;13505;45.196;5.696;2023-02-15T15:57:27;100305.53;;;14.99;43.52
25650;BME280;13505;45.196;5.696;2023-02-15T16:02:18;100307.00;;;14.85;43.45
25650;BME280;13505;45.196;5.696;2023-02-15T16:12:15;100302.97;;;14.56;44.63
25650;BME280;13505;45.196;5.696;2023-02-15T16:17:22;100310.22;;;14.31;44.81
25650;BME280;13505;45.196;5.696;2023-02-15T16:22:19;100317.59;;;14.24;45.16
25650;BME280;13505;45.196;5.696;2023-02-15T16:32:27;100344.06;;;14.05;45.91
25650;BME280;13505;45.196;5.696;2023-02-15T16:37:20;100334.81;;;13.93;45.76
25650;BME280;13505;45.196;5.696;2023-02-15T16:42:14;100338.78;;;13.83;45.76
25650;BME280;13505;45.196;5.696;2023-02-15T16:47:21;100335.81;;;13.68;46.59
25650;BME280;13505;45.196;5.696;2023-02-15T16:52:25;100345.22;;;13.55;46.84
25650;BME280;13505;45.196;5.696;2023-02-15T16:57:21;100340.41;;;13.41;47.75
25650;BME280;13505;45.196;5.696;2023-02-15T17:02:17;100344.34;;;13.31;47.85
25650;BME280;13505;45.196;5.696;2023-02-15T17:07:19;100349.94;;;13.23;47.81
25650;BME280;13505;45.196;5.696;2023-02-15T17:12:10;100357.31;;;13.15;48.68
25650;BME280;13505;45.196;5.696;2023-02-15T17:17:05;100362.41;;;12.95;48.81
25650;BME280;13505;45.196;5.696;2023-02-15T17:21:59;100369.16;;;12.80;49.77
25650;BME280;13505;45.196;5.696;2023-02-15T17:26:55;100377.00;;;12.58;50.01
25650;BME280;13505;45.196;5.696;2023-02-15T17:31:51;100381.69;;;12.50;50.25
25650;BME280;13505;45.196;5.696;2023-02-15T17:36:57;100380.44;;;12.35;50.22
25650;BME280;13505;45.196;5.696;2023-02-15T17:41:48;100384.41;;;12.21;50.71
25650;BME280;13505;45.196;5.696;2023-02-15T17:46:42;100392.47;;;12.18;50.71
25650;BME280;13505;45.196;5.696;2023-02-15T17:51:33;100387.22;;;12.17;50.62
25650;BME280;13505;45.196;5.696;2023-02-15T17:56:25;100397.94;;;12.12;49.70
25650;BME280;13505;45.196;5.696;2023-02-15T18:01:17;100405.44;;;11.97;50.72
25650;BME280;13505;45.196;5.696;2023-02-15T18:06:27;100416.19;;;11.63;50.96
25650;BME280;13505;45.196;5.696;2023-02-15T18:11:36;100423.88;;;11.40;52.16
25650;BME280;13505;45.196;5.696;2023-02-15T18:16:33;100418.19;;;11.24;52.75
25650;BME280;13505;45.196;5.696;2023-02-15T18:21:24;100414.22;;;11.09;56.59
25650;BME280;13505;45.196;5.696;2023-02-15T18:26:20;100426.84;;;10.98;54.15
25650;BME280;13505;45.196;5.696;2023-02-15T18:31:11;100433.47;;;10.81;54.67
25650;BME280;13505;45.196;5.696;2023-02-15T18:36:03;100438.38;;;10.62;55.41
25650;BME280;13505;45.196;5.696;2023-02-15T18:40:55;100440.41;;;10.51;55.91
25650;BME280;13505;45.196;5.696;2023-02-15T18:45:46;100444.13;;;10.40;56.54
25650;BME280;13505;45.196;5.696;2023-02-15T18:50:36;100454.94;;;10.31;57.06
25650;BME280;13505;45.196;5.696;2023-02-15T18:55:27;100456.09;;;10.19;57.33
25650;BME280;13505;45.196;5.696;2023-02-15T19:05:10;100456.59;;;9.97;58.90
25650;BME280;13505;45.196;5.696;2023-02-15T19:10:05;100458.44;;;9.94;59.03
25650;BME280;13505;45.196;5.696;2023-02-15T19:14:57;100453.28;;;9.87;58.57
25650;BME280;13505;45.196;5.696;2023-02-15T19:19:49;100456.72;;;9.91;57.58
25650;BME280;13505;45.196;5.696;2023-02-15T19:24:42;100457.84;;;9.81;58.06
25650;BME280;13505;45.196;5.696;2023-02-15T19:29:33;100460.28;;;9.90;56.83
25650;BME280;13505;45.196;5.696;2023-02-15T19:34:23;100460.13;;;9.55;56.71
25650;BME280;13505;45.196;5.696;2023-02-15T19:39:31;100457.56;;;9.52;56.64
25650;BME280;13505;45.196;5.696;2023-02-15T19:44:25;100460.81;;;9.65;56.08
25650;BME280;13505;45.196;5.696;2023-02-15T19:49:15;100458.16;;;9.67;55.70
25650;BME280;13505;45.196;5.696;2023-02-15T19:54:19;100460.75;;;9.68;56.09
25650;BME280;13505;45.196;5.696;2023-02-15T19:59:27;100458.28;;;9.60;55.94
25650;BME280;13505;45.196;5.696;2023-02-15T20:04:19;100460.16;;;9.11;56.48
25650;BME280;13505;45.196;5.696;2023-02-15T20:09:21;100465.84;;;8.86;57.40
25650;BME280;13505;45.196;5.696;2023-02-15T20:14:13;100462.38;;;8.86;56.94
25650;BME280;13505;45.196;5.696;2023-02-15T20:19:04;100459.22;;;9.14;56.95
25650;BME280;13505;45.196;5.696;2023-02-15T20:23:54;100459.84;;;9.27;56.39
25650;BME280;13505;45.196;5.696;2023-02-15T20:28:45;100465.72;;;9.40;56.02
25650;BME280;13505;45.196;5.696;2023-02-15T20:33:35;100457.03;;;9.34;55.67
25650;BME280;13505;45.196;5.696;2023-02-15T20:38:28;100468.78;;;9.19;56.84
25650;BME280;13505;45.196;5.696;2023-02-15T20:43:19;100468.72;;;9.21;56.33
25650;BME280;13505;45.196;5.696;2023-02-15T20:48:09;100470.59;;;9.16;56.22
25650;BME280;13505;45.196;5.696;2023-02-15T20:53:00;100474.31;;;9.05;56.95
25650;BME280;13505;45.196;5.696;2023-02-15T20:57:54;100472.50;;;9.07;56.86
25650;BME280;13505;45.196;5.696;2023-02-15T21:02:46;100481.31;;;9.06;57.25
25650;BME280;13505;45.196;5.696;2023-02-15T21:07:37;100484.69;;;9.13;57.72
25650;BME280;13505;45.196;5.696;2023-02-15T21:12:28;100484.69;;;9.13;57.12
25650;BME280;13505;45.196;5.696;2023-02-15T21:17:19;100477.75;;;9.09;56.81
25650;BME280;13505;45.196;5.696;2023-02-15T21:22:14;100473.41;;;9.06;57.40
25650;BME280;13505;45.196;5.696;2023-02-15T21:27:05;100474.50;;;8.94;56.91
25650;BME280;13505;45.196;5.696;2023-02-15T21:31:58;100478.63;;;9.08;56.61
25650;BME280;13505;45.196;5.696;2023-02-15T21:36:50;100477.84;;;9.04;55.97
25650;BME280;13505;45.196;5.696;2023-02-15T21:41:40;100470.78;;;9.05;56.07
25650;BME280;13505;45.196;5.696;2023-02-15T21:46:52;100481.56;;;8.92;56.31
25650;BME280;13505;45.196;5.696;2023-02-15T21:52:01;100479.72;;;8.98;55.89
25650;BME280;13505;45.196;5.696;2023-02-15T21:57:00;100477.03;;;9.01;56.19
25650;BME280;13505;45.196;5.696;2023-02-15T22:01:52;100484.09;;;8.97;56.59
25650;BME280;13505;45.196;5.696;2023-02-15T22:06:42;100479.25;;;8.74;56.59
25650;BME280;13505;45.196;5.696;2023-02-15T22:11:33;100474.63;;;8.88;56.23
25650;BME280;13505;45.196;5.696;2023-02-15T22:16:23;100479.06;;;8.85;56.40
25650;BME280;13505;45.196;5.696;2023-02-15T22:21:14;100485.47;;;8.68;56.96
25650;BME280;13505;45.196;5.696;2023-02-15T22:26:22;100482.69;;;8.77;56.76
25650;BME280;13505;45.196;5.696;2023-02-15T22:31:21;100477.25;;;8.87;56.03
25650;BME280;13505;45.196;5.696;2023-02-15T22:36:22;100480.72;;;8.90;55.92
25650;BME280;13505;45.196;5.696;2023-02-15T22:41:14;100480.94;;;8.78;56.10
25650;BME280;13505;45.196;5.696;2023-02-15T22:46:07;100479.91;;;8.87;55.75
25650;BME280;13505;45.196;5.696;2023-02-15T22:50:59;100473.72;;;8.89;56.02
25650;BME280;13505;45.196;5.696;2023-02-15T22:55:51;100483.75;;;8.67;55.12
